createdAt,value
2022-12-04T07:38:50.521Z,44.13
2022-12-04T07:41:52.371Z,42.28
2022-12-04T07:44:54.209Z,45.47
2022-12-04T07:47:55.990Z,46.95
2022-12-04T07:51:15.704Z,41.40
2022-12-04T07:54:17.567Z,41.30
2022-12-04T07:57:19.599Z,37.55
2022-12-04T08:00:21.770Z,41.03
2022-12-04T08:03:23.698Z,38.42
2022-12-04T08:06:27.783Z,33.63
2022-12-04T08:09:29.650Z,34.57
2022-12-04T08:12:33.225Z,31.23
2022-12-04T08:15:35.465Z,34.65
2022-12-04T08:18:38.060Z,40.47
2022-12-04T08:21:39.960Z,35.97
2022-12-04T08:24:42.820Z,36.27
2022-12-04T08:27:47.717Z,35.00
2022-12-04T08:30:49.770Z,30.92
2022-12-04T08:33:54.222Z,29.83
2022-12-04T08:36:56.089Z,30.52
2022-12-04T08:39:58.918Z,30.87
2022-12-04T08:43:00.923Z,33.70
2022-12-04T08:46:05.288Z,35.20
2022-12-04T08:49:07.499Z,33.47
2022-12-04T08:52:09.428Z,32.95
2022-12-04T08:55:11.313Z,29.83
2022-12-04T08:58:13.439Z,34.35
2022-12-04T09:01:16.105Z,39.97
2022-12-04T09:04:18.913Z,39.85
2022-12-04T09:07:21.001Z,38.92
2022-12-04T09:10:23.072Z,40.93
2022-12-04T09:13:25.026Z,36.00
2022-12-04T09:16:27.395Z,48.47
2022-12-04T09:19:31.223Z,35.35
2022-12-04T09:23:02.103Z,36.13
2022-12-04T09:25:59.496Z,32.13
2022-12-04T09:29:03.190Z,40.22
2022-12-04T09:32:05.473Z,36.67
2022-12-04T09:35:08.243Z,40.50
2022-12-04T18:53:07.269Z,76.90
2022-12-04T18:57:03.872Z,75.38
2022-12-04T19:01:00.448Z,47.88
2022-12-04T19:04:56.972Z,53.88
2022-12-04T19:08:53.508Z,58.73
2022-12-04T19:12:51.220Z,67.90
2022-12-04T19:16:53.993Z,70.97
2022-12-04T19:20:50.553Z,78.82
2022-12-04T19:24:47.191Z,62.80
2022-12-04T19:28:43.743Z,55.33
2022-12-04T19:32:40.286Z,57.97
2022-12-04T19:36:41.273Z,51.17
2022-12-04T19:40:37.869Z,70.03
2022-12-04T19:44:48.483Z,66.75
2022-12-04T19:48:49.780Z,53.22
2022-12-04T19:52:46.315Z,48.97
2022-12-04T19:56:45.837Z,39.83
2022-12-04T20:00:42.402Z,49.90
2022-12-04T20:04:39.044Z,47.85
2022-12-04T20:08:35.633Z,45.38
2022-12-04T20:12:32.192Z,51.37
2022-12-04T20:16:28.774Z,57.33
2022-12-04T20:20:25.548Z,51.03
2022-12-04T20:24:22.103Z,49.53
2022-12-04T20:28:18.636Z,48.47
2022-12-04T20:32:15.165Z,53.40
2022-12-04T20:36:12.251Z,60.88
2022-12-04T20:40:23.868Z,52.10
2022-12-04T20:44:20.809Z,60.42
2022-12-04T20:48:17.367Z,77.65
2022-12-04T20:52:17.036Z,65.63
2022-12-04T20:56:13.645Z,67.60
2022-12-04T21:00:10.202Z,63.78
2022-12-04T21:04:06.750Z,68.10
2022-12-04T21:08:03.311Z,58.60
2022-12-04T21:12:25.535Z,55.47
2022-12-04T21:16:22.849Z,53.58
2022-12-04T21:20:19.399Z,49.72
2022-12-04T21:24:15.960Z,55.92
2022-12-04T21:28:12.636Z,40.00
2022-12-04T21:32:09.184Z,32.50
2022-12-04T21:36:05.755Z,30.85
2022-12-04T21:40:02.460Z,39.10
2022-12-04T21:43:59.331Z,35.00
2022-12-04T21:47:55.903Z,28.75
2022-12-04T21:51:59.762Z,28.43
2022-12-04T21:55:57.249Z,27.90
2022-12-04T21:59:54.007Z,32.97
2022-12-04T22:03:53.372Z,41.67
2022-12-04T22:07:50.086Z,31.10
2022-12-04T22:11:46.705Z,31.60
2022-12-04T22:15:44.755Z,38.60
2022-12-04T22:19:41.350Z,31.77
2022-12-04T22:23:38.020Z,36.25
2022-12-04T22:27:34.548Z,35.90
2022-12-04T22:31:34.015Z,31.33
2022-12-04T22:35:30.829Z,33.67
2022-12-04T22:39:27.398Z,31.80
2022-12-04T22:43:24.099Z,32.42
2022-12-04T22:47:20.615Z,31.63
2022-12-04T22:51:19.711Z,39.23
2022-12-04T22:55:16.241Z,32.80
2022-12-04T22:59:12.818Z,32.92
2022-12-04T23:03:09.538Z,32.05
2022-12-04T23:07:06.145Z,29.87
2022-12-04T23:11:02.665Z,27.17
2022-12-04T23:14:59.168Z,27.08
2022-12-04T23:18:56.136Z,28.35
2022-12-04T23:22:54.805Z,27.65
2022-12-04T23:26:51.371Z,28.77
2022-12-04T23:30:48.134Z,29.33
2022-12-04T23:34:44.744Z,26.80
2022-12-04T23:38:41.295Z,22.15
2022-12-04T23:42:37.826Z,28.80
2022-12-04T23:46:34.462Z,30.93
2022-12-04T23:50:31.137Z,30.60
2022-12-04T23:54:28.481Z,27.85
2022-12-04T23:58:25.032Z,29.75
